Time;durP1;ratioP1;P1;durP2;ratioP2;P2;SDS_P1;SDS_P2;PMS_P1;PMS_P2;Temp;Humidity;BMP_temperature;BMP_pressure;BME280_temperature;BME280_humidity;BME280_pressure;Samples;Min_cycle;Max_cycle;Signal;HPM_P1;HPM_P2
2020/12/18 00:03:09;;;;;;;16.63;9.50;;;;;;;;;;10556293;28;20219;-72
2020/12/18 00:08:11;;;;;;;19.20;9.07;;;;;;;;;;10549911;28;20269;-72
2020/12/18 00:13:13;;;;;;;14.83;8.10;;;;;;;;;;10551553;28;20222;-73
2020/12/18 00:18:14;;;;;;;15.50;8.40;;;;;;;;;;10537880;28;20195;-71
2020/12/18 00:23:29;;;;;;;14.87;8.40;;;;;;;;;;10544718;28;20583;-71
2020/12/18 00:28:31;;;;;;;13.73;8.03;;;;;;;;;;10557389;28;20203;-70
2020/12/18 00:33:32;;;;;;;15.37;9.30;;;;;;;;;;10557620;28;20226;-70
2020/12/18 00:38:35;;;;;;;14.03;8.10;;;;;;;;;;10559670;28;20199;-71
2020/12/18 00:43:37;;;;;;;14.93;9.47;;;;;;;;;;10561103;28;20227;-71
2020/12/18 00:48:38;;;;;;;16.47;9.67;;;;;;;;;;10556560;28;20622;-71
2020/12/18 00:53:49;;;;;;;16.63;9.77;;;;;;;;;;10556425;28;20298;-70
2020/12/18 00:58:50;;;;;;;14.73;9.17;;;;;;;;;;10557007;28;20253;-72
2020/12/18 01:03:52;;;;;;;14.20;8.50;;;;;;;;;;10561608;28;20210;-73
2020/12/18 01:08:55;;;;;;;12.63;7.13;;;;;;;;;;10548081;28;20199;-72
2020/12/18 01:13:56;;;;;;;12.90;6.83;;;;;;;;;;10561747;28;20227;-71
2020/12/18 01:18:57;;;;;;;11.27;6.50;;;;;;;;;;10553209;28;20203;-70
2020/12/18 01:24:01;;;;;;;10.87;6.10;;;;;;;;;;10558894;28;20681;-71
2020/12/18 01:29:03;;;;;;;14.63;7.57;;;;;;;;;;10564620;28;20551;-71
2020/12/18 01:34:04;;;;;;;11.87;6.33;;;;;;;;;;10553542;28;20234;-70
2020/12/18 01:39:07;;;;;;;11.07;6.47;;;;;;;;;;10562564;28;20793;-70
2020/12/18 01:44:09;;;;;;;10.57;5.60;;;;;;;;;;10556788;28;20586;-71
2020/12/18 01:49:10;;;;;;;10.30;5.70;;;;;;;;;;10560180;28;20195;-71
2020/12/18 01:54:23;;;;;;;10.87;6.53;;;;;;;;;;10550417;28;20667;-71
2020/12/18 01:59:25;;;;;;;12.40;6.90;;;;;;;;;;10555212;28;20203;-71
2020/12/18 02:04:26;;;;;;;11.97;6.60;;;;;;;;;;10560930;28;20222;-70
2020/12/18 02:09:29;;;;;;;11.53;6.90;;;;;;;;;;10551602;28;20611;-70
2020/12/18 02:14:30;;;;;;;11.40;5.80;;;;;;;;;;10550692;28;20227;-71
2020/12/18 02:19:34;;;;;;;9.73;6.07;;;;;;;;;;10558769;28;20218;-71
2020/12/18 02:24:48;;;;;;;9.50;4.87;;;;;;;;;;10542883;28;20639;-71
2020/12/18 02:29:51;;;;;;;9.33;5.70;;;;;;;;;;10557859;28;20211;-73
2020/12/18 02:34:52;;;;;;;9.87;5.77;;;;;;;;;;10553184;28;20226;-72
2020/12/18 02:39:57;;;;;;;9.60;5.70;;;;;;;;;;10544403;28;20203;-70
2020/12/18 02:45:00;;;;;;;9.70;5.57;;;;;;;;;;10550576;28;20679;-72
2020/12/18 02:50:01;;;;;;;10.20;5.80;;;;;;;;;;10559393;28;20631;-71
2020/12/18 02:55:03;;;;;;;10.30;6.20;;;;;;;;;;10546197;28;20238;-71
2020/12/18 03:00:06;;;;;;;10.07;6.10;;;;;;;;;;10556481;28;20624;-72
2020/12/18 03:05:08;;;;;;;11.97;6.67;;;;;;;;;;10543194;28;20253;-72
2020/12/18 03:10:09;;;;;;;10.87;5.90;;;;;;;;;;10555486;28;20639;-71
2020/12/18 03:15:12;;;;;;;9.20;5.50;;;;;;;;;;10551808;28;20213;-74
2020/12/18 03:20:13;;;;;;;11.20;6.00;;;;;;;;;;10547541;28;20203;-71
2020/12/18 03:25:20;;;;;;;10.03;5.90;;;;;;;;;;10548203;28;20198;-71
2020/12/18 03:30:25;;;;;;;9.50;5.07;;;;;;;;;;10551137;28;20252;-71
2020/12/18 03:35:27;;;;;;;9.70;5.50;;;;;;;;;;10550727;28;20195;-71
2020/12/18 03:40:29;;;;;;;10.43;5.87;;;;;;;;;;10565098;28;20227;-71
2020/12/18 03:45:31;;;;;;;8.73;5.20;;;;;;;;;;10559726;28;20524;-71
2020/12/18 03:50:32;;;;;;;9.03;5.20;;;;;;;;;;10554291;28;20691;-70
2020/12/18 03:55:37;;;;;;;8.43;5.03;;;;;;;;;;10555168;28;20212;-70
2020/12/18 04:00:41;;;;;;;10.03;5.23;;;;;;;;;;10541438;28;20230;-70
2020/12/18 04:05:42;;;;;;;9.73;5.10;;;;;;;;;;10537245;28;20677;-72
2020/12/18 04:10:43;;;;;;;11.13;6.00;;;;;;;;;;10553749;28;20260;-72
2020/12/18 04:15:46;;;;;;;9.17;4.87;;;;;;;;;;10558190;28;20301;-72
2020/12/18 04:20:47;;;;;;;9.20;5.27;;;;;;;;;;10540113;28;20679;-72
2020/12/18 04:25:53;;;;;;;8.90;5.10;;;;;;;;;;10555997;28;20203;-71
2020/12/18 04:30:55;;;;;;;8.97;5.17;;;;;;;;;;10544963;28;20244;-72
2020/12/18 04:35:57;;;;;;;9.00;5.50;;;;;;;;;;10553781;28;20210;-71
2020/12/18 04:40:58;;;;;;;9.40;5.93;;;;;;;;;;10559942;28;20218;-70
2020/12/18 04:46:00;;;;;;;11.13;6.53;;;;;;;;;;10559540;28;20203;-70
2020/12/18 04:51:03;;;;;;;11.17;6.70;;;;;;;;;;10554785;28;20227;-71
2020/12/18 04:56:14;;;;;;;13.03;7.63;;;;;;;;;;10559159;28;20203;-71
2020/12/18 05:01:18;;;;;;;10.93;6.53;;;;;;;;;;10547759;28;20216;-72
2020/12/18 05:06:20;;;;;;;13.40;7.37;;;;;;;;;;10554457;28;20659;-73
2020/12/18 05:11:22;;;;;;;13.17;7.17;;;;;;;;;;10561380;28;20220;-72
2020/12/18 05:16:24;;;;;;;12.37;7.73;;;;;;;;;;10553810;28;20218;-72
2020/12/18 05:21:26;;;;;;;13.37;7.57;;;;;;;;;;10565796;28;20567;-72
2020/12/18 05:26:36;;;;;;;11.30;6.90;;;;;;;;;;10555195;28;20222;-71
2020/12/18 05:31:38;;;;;;;11.67;6.80;;;;;;;;;;10559878;28;20686;-72
2020/12/18 05:36:41;;;;;;;13.53;7.53;;;;;;;;;;10559769;28;20203;-71
2020/12/18 05:41:43;;;;;;;11.23;6.40;;;;;;;;;;10561533;28;20704;-71
2020/12/18 05:46:45;;;;;;;13.37;7.30;;;;;;;;;;10549173;28;20208;-72
2020/12/18 05:51:47;;;;;;;12.50;7.37;;;;;;;;;;10548791;28;20251;-70
2020/12/18 05:56:51;;;;;;;13.17;7.60;;;;;;;;;;10556360;28;20731;-70
2020/12/18 06:01:54;;;;;;;12.97;7.17;;;;;;;;;;10555983;28;20219;-71
2020/12/18 06:06:56;;;;;;;12.77;7.37;;;;;;;;;;10564600;28;20203;-71
2020/12/18 06:11:58;;;;;;;13.80;7.33;;;;;;;;;;10545783;28;20231;-71
2020/12/18 06:17:02;;;;;;;12.00;7.17;;;;;;;;;;10565507;28;20206;-71
2020/12/18 06:22:05;;;;;;;13.27;7.60;;;;;;;;;;10552887;28;20214;-69
2020/12/18 06:27:12;;;;;;;13.33;7.60;;;;;;;;;;10553959;28;20230;-71
2020/12/18 06:32:21;;;;;;;13.47;7.40;;;;;;;;;;10559307;28;20582;-71
2020/12/18 06:37:27;;;;;;;13.70;7.67;;;;;;;;;;10550570;28;20958;-71
2020/12/18 06:42:29;;;;;;;15.30;8.20;;;;;;;;;;10554836;28;20218;-72
2020/12/18 06:47:31;;;;;;;14.43;8.30;;;;;;;;;;10546955;28;20195;-72
2020/12/18 06:52:36;;;;;;;13.70;8.20;;;;;;;;;;10548578;28;20227;-71
2020/12/18 06:57:38;;;;;;;15.27;8.67;;;;;;;;;;10553920;28;20215;-70
2020/12/18 07:02:40;;;;;;;13.97;8.20;;;;;;;;;;10551712;28;20226;-70
2020/12/18 07:07:45;;;;;;;14.07;8.30;;;;;;;;;;10552439;28;20195;-70
2020/12/18 07:12:48;;;;;;;14.50;8.53;;;;;;;;;;10535892;28;20659;-70
2020/12/18 07:17:55;;;;;;;14.43;7.90;;;;;;;;;;10534195;28;20641;-69
2020/12/18 07:22:57;;;;;;;13.90;8.10;;;;;;;;;;10552015;28;20219;-70
2020/12/18 07:27:58;;;;;;;12.73;7.50;;;;;;;;;;10534402;28;20650;-71
2020/12/18 07:33:02;;;;;;;11.47;6.43;;;;;;;;;;10531127;28;20579;-71
2020/12/18 07:38:10;;;;;;;11.57;5.67;;;;;;;;;;10552097;28;20226;-70
2020/12/18 07:43:13;;;;;;;10.70;5.57;;;;;;;;;;10546523;28;20216;-71
2020/12/18 07:48:16;;;;;;;7.77;4.37;;;;;;;;;;10546731;28;20646;-72
2020/12/18 07:53:20;;;;;;;11.77;5.03;;;;;;;;;;10549299;28;20680;-72
2020/12/18 07:58:21;;;;;;;8.13;4.90;;;;;;;;;;10552926;28;20787;-72
2020/12/18 08:03:24;;;;;;;8.43;5.27;;;;;;;;;;10555594;28;20216;-71
2020/12/18 08:08:25;;;;;;;9.77;5.90;;;;;;;;;;10553336;28;20275;-72
2020/12/18 08:13:27;;;;;;;8.80;5.30;;;;;;;;;;10553505;28;20215;-72
2020/12/18 08:18:30;;;;;;;9.90;5.50;;;;;;;;;;10554879;28;20647;-72
2020/12/18 08:23:34;;;;;;;10.93;6.03;;;;;;;;;;10552269;28;20227;-72
2020/12/18 08:28:36;;;;;;;9.00;5.10;;;;;;;;;;10553175;28;20211;-73
2020/12/18 08:33:47;;;;;;;9.23;5.53;;;;;;;;;;10551765;28;20223;-71
2020/12/18 08:38:58;;;;;;;10.40;6.50;;;;;;;;;;10554291;28;20210;-73
2020/12/18 08:44:06;;;;;;;9.57;5.87;;;;;;;;;;10545332;28;20661;-71
2020/12/18 08:49:12;;;;;;;13.13;5.70;;;;;;;;;;10552871;28;20209;-72
2020/12/18 08:54:28;;;;;;;10.53;5.60;;;;;;;;;;10569153;28;20219;-73
2020/12/18 08:59:29;;;;;;;9.33;5.50;;;;;;;;;;10558301;28;20654;-72
2020/12/18 09:04:32;;;;;;;8.20;5.40;;;;;;;;;;10556571;28;20212;-72
2020/12/18 09:09:36;;;;;;;9.03;5.97;;;;;;;;;;10564789;28;20192;-69
2020/12/18 09:14:37;;;;;;;12.17;6.53;;;;;;;;;;10562176;28;20582;-70
2020/12/18 09:19:45;;;;;;;10.97;6.60;;;;;;;;;;10558647;28;20206;-71
2020/12/18 09:25:00;;;;;;;8.70;5.85;;;;;;;;;;10558197;28;20237;-72
2020/12/18 09:30:06;;;;;;;9.77;5.55;;;;;;;;;;10550992;28;20199;-72
2020/12/18 09:35:08;;;;;;;10.02;6.70;;;;;;;;;;10545836;28;20227;-72
2020/12/18 09:40:10;;;;;;;9.65;6.85;;;;;;;;;;10555002;28;20209;-72
2020/12/18 09:45:12;;;;;;;8.80;6.85;;;;;;;;;;10547369;28;20209;-72
2020/12/18 09:50:14;;;;;;;10.85;6.97;;;;;;;;;;10571718;28;20276;-72
2020/12/18 09:55:22;;;;;;;10.55;7.15;;;;;;;;;;10560329;28;20219;-72
2020/12/18 10:00:23;;;;;;;13.15;9.88;;;;;;;;;;10555600;28;20195;-71
2020/12/18 10:05:26;;;;;;;10.07;6.93;;;;;;;;;;10558283;28;20570;-71
2020/12/18 10:10:27;;;;;;;10.77;6.97;;;;;;;;;;10560116;28;20195;-72
2020/12/18 10:15:29;;;;;;;11.95;7.65;;;;;;;;;;10561932;28;20220;-70
2020/12/18 10:20:31;;;;;;;8.02;5.65;;;;;;;;;;10546835;28;20215;-71
2020/12/18 10:25:33;;;;;;;10.05;5.55;;;;;;;;;;10558650;28;20684;-71
2020/12/18 10:30:37;;;;;;;9.25;5.40;;;;;;;;;;10558395;28;20772;-71
2020/12/18 10:35:39;;;;;;;8.88;5.55;;;;;;;;;;10562444;28;20273;-72
2020/12/18 10:40:41;;;;;;;8.80;5.88;;;;;;;;;;10545342;28;20313;-71
2020/12/18 10:45:43;;;;;;;8.77;5.57;;;;;;;;;;10560100;28;20229;-71
2020/12/18 10:50:45;;;;;;;10.10;6.07;;;;;;;;;;10550608;28;20313;-71
2020/12/18 10:55:48;;;;;;;10.65;5.82;;;;;;;;;;10552665;28;20296;-71
2020/12/18 11:00:49;;;;;;;9.93;5.50;;;;;;;;;;10557374;28;20223;-71
2020/12/18 11:05:51;;;;;;;8.43;5.18;;;;;;;;;;10542890;28;20192;-71
2020/12/18 11:10:53;;;;;;;7.88;5.53;;;;;;;;;;10549578;28;20219;-71
2020/12/18 11:15:54;;;;;;;7.90;5.53;;;;;;;;;;10546577;28;20223;-71
2020/12/18 11:20:57;;;;;;;8.48;5.50;;;;;;;;;;10543991;28;20227;-71
2020/12/18 11:25:59;;;;;;;8.40;5.80;;;;;;;;;;10545769;28;20215;-71
2020/12/18 11:31:00;;;;;;;11.02;7.30;;;;;;;;;;10536968;28;20225;-71
2020/12/18 11:36:03;;;;;;;9.73;5.78;;;;;;;;;;10546386;28;20204;-71
2020/12/18 11:41:04;;;;;;;8.05;5.68;;;;;;;;;;10543906;28;20271;-71
2020/12/18 11:46:06;;;;;;;7.38;5.13;;;;;;;;;;10557849;28;20199;-72
2020/12/18 11:51:09;;;;;;;7.38;5.05;;;;;;;;;;10555264;28;20581;-69
2020/12/18 11:56:11;;;;;;;8.00;6.10;;;;;;;;;;10548448;28;20657;-73
2020/12/18 12:01:21;;;;;;;12.13;8.30;;;;;;;;;;10546911;28;20219;-72
2020/12/18 12:06:23;;;;;;;7.68;5.68;;;;;;;;;;10550748;28;20811;-71
2020/12/18 12:11:25;;;;;;;9.00;6.15;;;;;;;;;;10551657;28;20230;-71
2020/12/18 12:16:31;;;;;;;8.38;5.90;;;;;;;;;;10546731;28;20207;-71
2020/12/18 12:21:33;;;;;;;8.82;5.93;;;;;;;;;;10545288;28;20211;-70
2020/12/18 12:26:35;;;;;;;9.32;6.10;;;;;;;;;;10560870;28;20199;-71
2020/12/18 12:31:36;;;;;;;8.98;6.25;;;;;;;;;;10556972;28;20241;-71
2020/12/18 12:36:39;;;;;;;8.93;5.47;;;;;;;;;;10563585;28;20344;-69
2020/12/18 12:41:40;;;;;;;8.80;5.93;;;;;;;;;;10561479;28;20560;-71
2020/12/18 12:46:42;;;;;;;7.88;5.45;;;;;;;;;;10562188;28;20194;-71
2020/12/18 12:51:44;;;;;;;7.97;5.45;;;;;;;;;;10555105;28;20211;-70
2020/12/18 12:56:45;;;;;;;8.38;5.53;;;;;;;;;;10549473;28;20202;-69
2020/12/18 13:01:47;;;;;;;9.48;6.07;;;;;;;;;;10565926;28;20226;-69
2020/12/18 13:06:50;;;;;;;9.32;5.60;;;;;;;;;;10546321;28;20716;-70
2020/12/18 13:11:51;;;;;;;8.05;5.13;;;;;;;;;;10564575;28;20219;-69
2020/12/18 13:16:55;;;;;;;8.85;5.43;;;;;;;;;;10561269;28;20546;-70
2020/12/18 13:21:58;;;;;;;9.53;5.30;;;;;;;;;;10550466;28;20214;-71
2020/12/18 13:27:00;;;;;;;9.87;5.33;;;;;;;;;;10557504;28;20198;-71
2020/12/18 13:32:01;;;;;;;7.70;5.00;;;;;;;;;;10557143;28;20619;-70
2020/12/18 13:37:04;;;;;;;7.50;4.43;;;;;;;;;;10546432;28;20205;-71
2020/12/18 13:42:05;;;;;;;8.90;4.43;;;;;;;;;;10550789;28;20215;-71
2020/12/18 13:47:07;;;;;;;8.20;4.40;;;;;;;;;;10558010;28;20202;-71
2020/12/18 13:52:10;;;;;;;8.27;4.60;;;;;;;;;;10557599;28;20238;-71
2020/12/18 13:57:12;;;;;;;10.27;6.20;;;;;;;;;;10544124;28;20214;-71
2020/12/18 14:02:14;;;;;;;9.67;6.07;;;;;;;;;;10559485;28;20242;-72
2020/12/18 14:07:16;;;;;;;7.83;4.63;;;;;;;;;;10539437;28;20222;-69
2020/12/18 14:12:17;;;;;;;9.40;5.50;;;;;;;;;;10554727;28;20543;-70
2020/12/18 14:17:23;;;;;;;10.17;6.07;;;;;;;;;;10547643;28;20264;-71
2020/12/18 14:22:25;;;;;;;11.23;6.00;;;;;;;;;;10542959;28;20215;-70
2020/12/18 14:27:27;;;;;;;9.30;5.77;;;;;;;;;;10548021;28;20223;-71
2020/12/18 14:32:29;;;;;;;10.73;6.03;;;;;;;;;;10543366;28;20288;-71
2020/12/18 14:37:32;;;;;;;12.07;6.57;;;;;;;;;;10542173;28;20202;-71
2020/12/18 14:42:33;;;;;;;11.17;6.10;;;;;;;;;;10551221;28;20323;-71
2020/12/18 14:47:35;;;;;;;9.50;5.87;;;;;;;;;;10535598;28;20199;-70
2020/12/18 14:52:37;;;;;;;10.43;6.37;;;;;;;;;;10556648;28;20310;-71
2020/12/18 14:57:39;;;;;;;11.23;6.53;;;;;;;;;;10545252;28;20215;-71
2020/12/18 15:02:41;;;;;;;10.60;6.50;;;;;;;;;;10553008;28;20678;-70
2020/12/18 15:07:44;;;;;;;10.90;6.43;;;;;;;;;;10556835;28;20210;-70
2020/12/18 15:12:45;;;;;;;10.63;6.30;;;;;;;;;;10549356;28;20273;-71
2020/12/18 15:17:47;;;;;;;11.03;6.07;;;;;;;;;;10554772;28;20229;-72
2020/12/18 15:22:49;;;;;;;10.93;6.67;;;;;;;;;;10552008;28;20221;-71
2020/12/18 15:27:51;;;;;;;11.10;6.70;;;;;;;;;;10552170;28;20211;-71
2020/12/18 15:32:52;;;;;;;11.20;6.43;;;;;;;;;;10547890;28;20230;-70
2020/12/18 15:37:55;;;;;;;13.43;7.57;;;;;;;;;;10541256;28;20516;-70
2020/12/18 15:42:56;;;;;;;11.27;6.30;;;;;;;;;;10545817;28;20771;-71
2020/12/18 15:47:58;;;;;;;10.87;6.03;;;;;;;;;;10543246;28;20199;-71
2020/12/18 15:53:01;;;;;;;11.73;7.30;;;;;;;;;;10555320;28;20226;-71
2020/12/18 15:58:03;;;;;;;12.07;7.37;;;;;;;;;;10549424;28;20222;-71
2020/12/18 16:03:24;;;;;;;14.70;8.10;;;;;;;;;;10554224;28;20237;-71
2020/12/18 16:08:26;;;;;;;13.53;8.17;;;;;;;;;;10557277;28;20889;-70
2020/12/18 16:13:28;;;;;;;13.67;8.23;;;;;;;;;;10550269;28;20291;-69
2020/12/18 16:18:30;;;;;;;14.83;8.83;;;;;;;;;;10545643;28;20191;-69
2020/12/18 16:23:32;;;;;;;11.27;7.47;;;;;;;;;;10540596;28;20256;-70
2020/12/18 16:28:35;;;;;;;12.10;7.07;;;;;;;;;;10548207;28;20196;-71
2020/12/18 16:33:36;;;;;;;13.63;7.27;;;;;;;;;;10558994;28;20242;-71
2020/12/18 16:38:39;;;;;;;12.37;6.27;;;;;;;;;;10539069;28;20203;-68
2020/12/18 16:43:40;;;;;;;11.83;7.33;;;;;;;;;;10544511;28;20224;-70
2020/12/18 16:48:44;;;;;;;15.93;7.43;;;;;;;;;;10560148;28;20206;-70
2020/12/18 16:53:46;;;;;;;11.50;7.07;;;;;;;;;;10550145;28;20225;-71
2020/12/18 16:58:48;;;;;;;11.97;7.17;;;;;;;;;;10544478;28;20219;-70
2020/12/18 17:03:49;;;;;;;11.60;7.43;;;;;;;;;;10549533;28;20730;-71
2020/12/18 17:08:52;;;;;;;12.17;6.77;;;;;;;;;;10553555;28;20306;-72
2020/12/18 17:13:53;;;;;;;11.00;6.53;;;;;;;;;;10548246;28;20215;-71
2020/12/18 17:18:55;;;;;;;11.67;7.13;;;;;;;;;;10559055;28;20689;-71
2020/12/18 17:23:57;;;;;;;12.13;7.47;;;;;;;;;;10544052;28;20211;-70
2020/12/18 17:28:59;;;;;;;13.67;7.90;;;;;;;;;;10548901;28;20207;-70
2020/12/18 17:34:00;;;;;;;13.00;7.40;;;;;;;;;;10550967;28;20563;-70
2020/12/18 17:39:03;;;;;;;17.87;10.40;;;;;;;;;;10549155;28;20210;-69
2020/12/18 17:44:05;;;;;;;12.37;7.73;;;;;;;;;;10550007;28;20210;-71
2020/12/18 17:49:06;;;;;;;16.43;9.47;;;;;;;;;;10542163;28;20290;-71
2020/12/18 17:54:10;;;;;;;17.43;9.10;;;;;;;;;;10552528;28;20785;-70
2020/12/18 17:59:12;;;;;;;20.07;11.63;;;;;;;;;;10553292;28;20282;-70
2020/12/18 18:04:22;;;;;;;21.17;10.97;;;;;;;;;;10548562;28;20263;-70
2020/12/18 18:09:25;;;;;;;18.43;10.77;;;;;;;;;;10563301;28;20549;-70
2020/12/18 18:14:26;;;;;;;16.23;8.47;;;;;;;;;;10557796;28;20215;-71
2020/12/18 18:19:28;;;;;;;14.80;8.20;;;;;;;;;;10548855;28;20210;-69
2020/12/18 18:24:30;;;;;;;12.83;7.30;;;;;;;;;;10554854;28;20589;-69
2020/12/18 18:29:32;;;;;;;12.90;8.33;;;;;;;;;;10558705;28;20216;-69
2020/12/18 18:34:33;;;;;;;14.03;9.40;;;;;;;;;;10553814;28;20225;-69
2020/12/18 18:39:36;;;;;;;11.43;7.40;;;;;;;;;;10558650;28;20275;-69
2020/12/18 18:44:39;;;;;;;14.03;7.73;;;;;;;;;;10554915;28;20595;-69
2020/12/18 18:49:40;;;;;;;13.47;8.30;;;;;;;;;;10551489;27;20287;-70
2020/12/18 18:54:43;;;;;;;12.67;7.60;;;;;;;;;;10547953;28;20224;-70
2020/12/18 18:59:44;;;;;;;13.10;8.30;;;;;;;;;;10552798;28;20207;-69
2020/12/18 19:04:46;;;;;;;12.77;7.47;;;;;;;;;;10559574;28;20220;-70
2020/12/18 19:09:48;;;;;;;14.50;8.30;;;;;;;;;;10545661;28;20273;-70
2020/12/18 19:14:50;;;;;;;12.97;7.53;;;;;;;;;;10564356;28;20232;-70
2020/12/18 19:19:51;;;;;;;14.33;8.20;;;;;;;;;;10549029;28;20282;-70
2020/12/18 19:24:54;;;;;;;14.70;8.57;;;;;;;;;;10543101;28;20230;-70
2020/12/18 19:29:56;;;;;;;12.07;7.57;;;;;;;;;;10550108;28;20199;-69
2020/12/18 19:34:57;;;;;;;14.17;8.33;;;;;;;;;;10543374;28;20736;-70
2020/12/18 19:39:59;;;;;;;12.63;7.33;;;;;;;;;;10542280;28;20286;-70
2020/12/18 19:45:02;;;;;;;12.77;8.03;;;;;;;;;;10545267;28;20223;-70
2020/12/18 19:50:05;;;;;;;14.60;8.83;;;;;;;;;;10540517;28;20200;-70
2020/12/18 19:55:08;;;;;;;13.27;8.13;;;;;;;;;;10548747;28;20685;-70
2020/12/18 20:00:10;;;;;;;14.07;8.13;;;;;;;;;;10530610;28;20199;-70
2020/12/18 20:05:12;;;;;;;13.73;8.27;;;;;;;;;;10542965;28;20658;-70
2020/12/18 20:10:14;;;;;;;12.47;7.07;;;;;;;;;;10542978;28;20199;-70
2020/12/18 20:15:15;;;;;;;13.23;7.50;;;;;;;;;;10556527;28;20563;-70
2020/12/18 20:20:17;;;;;;;13.47;7.17;;;;;;;;;;10546838;28;20666;-71
2020/12/18 20:25:20;;;;;;;12.23;7.03;;;;;;;;;;10539407;28;20196;-70
2020/12/18 20:30:25;;;;;;;14.13;7.50;;;;;;;;;;10559338;28;20282;-71
2020/12/18 20:35:27;;;;;;;11.70;7.00;;;;;;;;;;10548755;28;20221;-70
2020/12/18 20:40:30;;;;;;;13.27;7.23;;;;;;;;;;10546908;28;20199;-69
2020/12/18 20:45:31;;;;;;;13.47;7.37;;;;;;;;;;10559136;28;20240;-70
2020/12/18 20:50:33;;;;;;;11.97;7.27;;;;;;;;;;10556819;28;20195;-70
2020/12/18 20:55:35;;;;;;;12.83;7.10;;;;;;;;;;10563981;28;20242;-69
2020/12/18 21:00:37;;;;;;;12.83;7.50;;;;;;;;;;10560393;28;20238;-71
2020/12/18 21:05:38;;;;;;;14.50;7.83;;;;;;;;;;10557930;28;20204;-71
2020/12/18 21:10:41;;;;;;;15.20;8.07;;;;;;;;;;10560275;28;20219;-69
2020/12/18 21:15:42;;;;;;;15.03;8.23;;;;;;;;;;10564920;28;20219;-71
2020/12/18 21:20:44;;;;;;;15.00;7.27;;;;;;;;;;10561741;28;20279;-70
2020/12/18 21:25:46;;;;;;;12.90;7.30;;;;;;;;;;10565161;28;21455;-71
2020/12/18 21:30:57;;;;;;;14.57;6.77;;;;;;;;;;10568408;28;20282;-70
2020/12/18 21:35:59;;;;;;;16.43;7.00;;;;;;;;;;10549836;28;20675;-72
2020/12/18 21:41:02;;;;;;;15.33;7.67;;;;;;;;;;10558700;28;20245;-70
2020/12/18 21:46:03;;;;;;;27.27;7.73;;;;;;;;;;10555594;28;20199;-70
2020/12/18 21:51:05;;;;;;;28.63;10.63;;;;;;;;;;10551909;28;20211;-71
2020/12/18 21:56:11;;;;;;;14.00;7.63;;;;;;;;;;10551560;28;20227;-71
2020/12/18 22:01:14;;;;;;;15.67;7.80;;;;;;;;;;10554367;28;20690;-70
2020/12/18 22:06:15;;;;;;;18.67;9.47;;;;;;;;;;10551160;28;20219;-72
2020/12/18 22:11:18;;;;;;;13.17;6.10;;;;;;;;;;10561577;28;20382;-71
2020/12/18 22:16:19;;;;;;;20.33;11.37;;;;;;;;;;10558041;28;20221;-72
2020/12/18 22:21:21;;;;;;;13.70;7.40;;;;;;;;;;10560596;28;20287;-71
2020/12/18 22:26:23;;;;;;;12.73;6.50;;;;;;;;;;10551148;28;20221;-72
2020/12/18 22:31:25;;;;;;;15.57;5.90;;;;;;;;;;10564679;28;20586;-72
2020/12/18 22:36:28;;;;;;;13.07;6.90;;;;;;;;;;10552504;28;20218;-71
2020/12/18 22:41:30;;;;;;;18.97;8.43;;;;;;;;;;10559347;28;20595;-72
2020/12/18 22:46:31;;;;;;;12.73;7.30;;;;;;;;;;10556135;28;20211;-72
2020/12/18 22:51:33;;;;;;;11.83;6.90;;;;;;;;;;10551572;28;20746;-72
2020/12/18 22:56:35;;;;;;;12.73;6.80;;;;;;;;;;10557788;28;20785;-71
2020/12/18 23:01:37;;;;;;;13.23;7.67;;;;;;;;;;10557346;28;20590;-70
2020/12/18 23:06:38;;;;;;;11.23;7.07;;;;;;;;;;10558089;28;20203;-71
2020/12/18 23:11:41;;;;;;;12.47;6.20;;;;;;;;;;10551542;28;20233;-71
2020/12/18 23:16:42;;;;;;;10.47;6.13;;;;;;;;;;10555987;28;20306;-69
2020/12/18 23:21:44;;;;;;;11.63;6.43;;;;;;;;;;10544602;28;20230;-71
2020/12/18 23:26:46;;;;;;;11.80;5.97;;;;;;;;;;10558291;28;20195;-70
2020/12/18 23:31:50;;;;;;;10.67;5.90;;;;;;;;;;10560216;28;20269;-70
2020/12/18 23:36:52;;;;;;;11.00;6.50;;;;;;;;;;10561863;28;20229;-71
2020/12/18 23:41:55;;;;;;;15.20;7.27;;;;;;;;;;10560986;28;20286;-71
2020/12/18 23:46:57;;;;;;;11.50;6.13;;;;;;;;;;10555814;28;20276;-72
2020/12/18 23:51:58;;;;;;;13.00;6.43;;;;;;;;;;10559673;28;20219;-72
2020/12/18 23:57:01;;;;;;;13.37;7.17;;;;;;;;;;10554178;28;20678;-72
